createdAt,value
2019-03-18T00:00:54.828Z,3.37
2019-03-18T00:01:54.803Z,3.50
2019-03-18T00:02:54.785Z,3.52
2019-03-18T00:03:54.768Z,3.48
2019-03-18T00:04:54.752Z,3.49
2019-03-18T00:05:54.740Z,3.58
2019-03-18T00:06:54.712Z,3.48
2019-03-18T00:07:54.751Z,3.49
2019-03-18T00:08:54.666Z,3.55
2019-03-18T00:09:54.655Z,3.53
2019-03-18T00:10:54.627Z,3.56
2019-03-18T00:11:54.609Z,3.56
2019-03-18T00:12:54.586Z,3.58
2019-03-18T00:13:54.564Z,3.67
2019-03-18T00:15:01.233Z,3.61
2019-03-18T00:15:54.531Z,3.64
2019-03-18T00:16:54.506Z,3.59
2019-03-18T00:17:54.479Z,3.64
2019-03-18T00:18:54.455Z,3.64
2019-03-18T00:19:54.456Z,3.55
2019-03-18T00:20:54.429Z,3.58
2019-03-18T00:21:54.422Z,3.53
2019-03-18T00:22:54.386Z,3.55
2019-03-18T00:23:54.368Z,3.53
2019-03-18T00:24:54.340Z,3.46
2019-03-18T00:25:54.339Z,3.43
2019-03-18T00:26:54.299Z,3.48
2019-03-18T00:27:54.279Z,3.40
2019-03-18T00:28:54.261Z,3.41
2019-03-18T00:29:54.245Z,3.41
2019-03-18T00:30:54.217Z,3.52
2019-03-18T00:31:54.203Z,3.53
2019-03-18T00:32:54.176Z,3.49
2019-03-18T00:33:54.157Z,3.41
2019-03-18T00:34:54.134Z,3.43
2019-03-18T00:35:54.117Z,3.48
2019-03-18T00:36:54.114Z,3.45
2019-03-18T00:37:54.076Z,3.33
2019-03-18T00:38:54.053Z,3.40
2019-03-18T00:39:54.035Z,3.37
2019-03-18T00:40:54.025Z,3.37
2019-03-18T00:41:54.021Z,3.36
2019-03-18T00:42:53.978Z,3.33
2019-03-18T00:43:53.954Z,3.41
2019-03-18T00:44:53.931Z,3.33
2019-03-18T00:45:53.914Z,3.36
2019-03-18T00:46:53.891Z,3.34
2019-03-18T00:47:53.892Z,3.43
2019-03-18T00:48:53.852Z,3.36
2019-03-18T00:49:53.832Z,3.37
2019-03-18T00:50:53.815Z,3.41
2019-03-18T00:51:53.795Z,3.34
2019-03-18T00:52:53.770Z,3.29
2019-03-18T00:53:53.746Z,3.31
2019-03-18T00:54:53.728Z,3.29
2019-03-18T00:55:53.713Z,3.29
2019-03-18T00:56:53.689Z,3.27
2019-03-18T00:57:53.667Z,3.22
2019-03-18T00:58:53.649Z,3.33
2019-03-18T00:59:53.631Z,3.29
2019-03-18T01:00:53.607Z,3.21
2019-03-18T01:01:53.586Z,3.13
2019-03-18T01:02:53.567Z,3.21
2019-03-18T01:03:53.542Z,3.15
2019-03-18T01:04:53.526Z,3.09
2019-03-18T01:05:53.505Z,3.11
2019-03-18T01:06:53.486Z,3.15
2019-03-18T01:07:53.465Z,3.13
2019-03-18T01:08:53.448Z,3.26
2019-03-18T01:09:53.422Z,3.18
2019-03-18T01:10:53.402Z,3.15
2019-03-18T01:11:53.383Z,3.16
2019-03-18T01:12:53.364Z,3.21
2019-03-18T01:13:53.339Z,3.11
2019-03-18T01:14:53.321Z,3.11
2019-03-18T01:15:53.299Z,3.16
2019-03-18T01:16:53.284Z,3.16
2019-03-18T01:17:53.261Z,3.12
2019-03-18T01:18:53.240Z,3.21
2019-03-18T01:19:53.219Z,3.12
2019-03-18T01:20:53.198Z,3.11
2019-03-18T01:21:53.178Z,3.12
2019-03-18T01:22:53.157Z,3.13
2019-03-18T01:23:53.131Z,3.11
2019-03-18T01:24:53.116Z,3.16
2019-03-18T01:25:53.114Z,3.11
2019-03-18T01:26:53.074Z,3.11
2019-03-18T01:27:53.073Z,3.11
2019-03-18T01:28:53.036Z,3.19
2019-03-18T01:29:53.013Z,3.12
2019-03-18T01:30:52.994Z,3.16
2019-03-18T01:31:52.973Z,3.16
2019-03-18T01:32:52.950Z,3.08
2019-03-18T01:33:52.934Z,3.03
2019-03-18T01:34:52.912Z,3.06
2019-03-18T01:35:52.892Z,3.06
2019-03-18T01:36:52.875Z,3.09
2019-03-18T01:37:52.850Z,3.13
2019-03-18T01:38:52.831Z,3.16
2019-03-18T01:39:52.808Z,3.06
2019-03-18T01:40:52.788Z,3.12
2019-03-18T01:41:52.782Z,3.11
2019-03-18T01:42:52.744Z,3.06
2019-03-18T01:43:52.727Z,3.05
2019-03-18T01:44:52.712Z,3.03
2019-03-18T01:45:52.686Z,3.01
2019-03-18T01:46:52.666Z,3.01
2019-03-18T01:47:52.647Z,3.01
2019-03-18T01:48:52.640Z,3.01
2019-03-18T01:49:52.602Z,3.05
2019-03-18T01:50:52.604Z,2.97
2019-03-18T01:51:52.566Z,2.87
2019-03-18T01:52:52.541Z,2.87
2019-03-18T01:53:52.521Z,3.00
2019-03-18T01:54:52.501Z,3.03
2019-03-18T01:55:52.479Z,2.95
2019-03-18T01:56:52.461Z,2.94
2019-03-18T01:57:52.439Z,2.91
2019-03-18T01:58:52.419Z,2.90
2019-03-18T01:59:52.407Z,2.83
2019-03-18T02:00:52.383Z,2.87
2019-03-18T02:01:52.356Z,2.93
2019-03-18T02:02:52.336Z,2.77
2019-03-18T02:03:52.316Z,2.83
2019-03-18T02:04:52.298Z,2.73
2019-03-18T02:05:52.282Z,2.77
2019-03-18T02:06:52.259Z,2.77
2019-03-18T02:07:52.243Z,2.77
2019-03-18T02:08:52.221Z,2.79
2019-03-18T02:09:52.188Z,2.75
2019-03-18T02:10:52.172Z,2.80
2019-03-18T02:11:52.150Z,2.77
2019-03-18T02:12:52.132Z,2.68
2019-03-18T02:13:52.112Z,2.70
2019-03-18T02:14:52.090Z,2.70
2019-03-18T02:15:53.617Z,2.70
2019-03-18T02:16:52.050Z,2.69
2019-03-18T02:17:52.043Z,2.75
2019-03-18T02:18:52.006Z,2.70
2019-03-18T02:19:51.986Z,2.69
2019-03-18T02:20:51.968Z,2.69
2019-03-18T02:21:51.944Z,2.70
2019-03-18T02:22:51.925Z,2.69
2019-03-18T02:23:51.923Z,2.68
2019-03-18T02:24:51.884Z,2.69
2019-03-18T02:25:51.866Z,2.64
2019-03-18T02:26:51.844Z,2.72
2019-03-18T02:27:51.823Z,2.68
2019-03-18T02:28:51.803Z,2.55
2019-03-18T02:29:51.779Z,2.52
2019-03-18T02:30:51.763Z,2.54
2019-03-18T02:31:51.740Z,2.59
2019-03-18T02:32:51.721Z,2.58
2019-03-18T02:33:51.710Z,2.59
2019-03-18T02:34:51.681Z,2.55
2019-03-18T02:35:51.659Z,2.55
2019-03-18T02:36:51.637Z,2.54
2019-03-18T02:37:51.622Z,2.58
2019-03-18T02:38:51.594Z,2.55
2019-03-18T02:39:51.568Z,2.58
2019-03-18T02:40:51.553Z,2.59
2019-03-18T02:41:51.531Z,2.47
2019-03-18T02:42:51.513Z,2.50
2019-03-18T02:43:51.494Z,2.57
2019-03-18T02:44:51.493Z,2.55
2019-03-18T02:45:51.450Z,2.61
2019-03-18T02:46:51.430Z,2.52
2019-03-18T02:47:51.410Z,2.59
2019-03-18T02:48:51.392Z,2.58
2019-03-18T02:49:51.366Z,2.58
2019-03-18T02:50:51.369Z,2.58
2019-03-18T02:51:53.063Z,2.55
2019-03-18T02:52:51.314Z,2.61
2019-03-18T02:53:51.283Z,2.62
2019-03-18T02:54:51.263Z,2.61
2019-03-18T02:55:51.248Z,2.50
2019-03-18T02:56:51.222Z,2.50
2019-03-18T02:57:51.207Z,2.59
2019-03-18T02:58:51.185Z,2.51
2019-03-18T02:59:51.173Z,2.47
2019-03-18T03:00:51.139Z,2.61
2019-03-18T03:01:51.122Z,2.52
2019-03-18T03:02:51.100Z,2.46
2019-03-18T03:03:51.081Z,2.59
2019-03-18T03:04:51.057Z,2.55
2019-03-18T03:05:51.035Z,2.54
2019-03-18T03:06:51.015Z,2.62
2019-03-18T03:07:50.995Z,2.54
2019-03-18T03:08:50.974Z,2.55
2019-03-18T03:09:50.956Z,2.50
2019-03-18T03:10:50.929Z,2.54
2019-03-18T03:11:50.912Z,2.50
2019-03-18T03:12:50.912Z,2.54
2019-03-18T03:13:50.869Z,2.55
2019-03-18T03:14:50.848Z,2.54
2019-03-18T03:15:50.829Z,2.50
2019-03-18T03:16:50.809Z,2.51
2019-03-18T03:17:50.785Z,2.54
2019-03-18T03:18:50.768Z,2.52
2019-03-18T03:19:50.748Z,2.52
2019-03-18T03:20:50.726Z,2.39
2019-03-18T03:21:50.703Z,2.52
2019-03-18T03:22:50.684Z,2.54
2019-03-18T03:23:50.666Z,2.58
2019-03-18T03:24:50.646Z,2.58
2019-03-18T03:25:50.620Z,2.55
2019-03-18T03:26:50.600Z,2.40
2019-03-18T03:27:50.579Z,2.57
2019-03-18T03:28:50.579Z,2.50
2019-03-18T03:29:50.544Z,2.52
2019-03-18T03:30:50.518Z,2.51
2019-03-18T03:31:50.504Z,2.55
2019-03-18T03:32:50.483Z,2.47
2019-03-18T03:33:50.456Z,2.44
2019-03-18T03:34:50.439Z,2.46
2019-03-18T03:35:50.477Z,2.47
2019-03-18T03:36:50.393Z,2.52
2019-03-18T03:37:50.373Z,2.54
2019-03-18T03:38:50.351Z,2.58
2019-03-18T03:39:50.332Z,2.57
2019-03-18T03:40:50.314Z,2.58
2019-03-18T03:41:50.290Z,2.64
2019-03-18T03:42:50.266Z,2.58
2019-03-18T03:43:50.266Z,2.55
2019-03-18T03:44:50.248Z,2.62
2019-03-18T03:45:50.208Z,2.58
2019-03-18T03:46:50.186Z,2.55
2019-03-18T03:47:50.165Z,2.59
2019-03-18T03:48:50.145Z,2.61
2019-03-18T03:49:50.122Z,2.65
2019-03-18T03:50:50.107Z,2.64
2019-03-18T03:51:50.084Z,2.69
2019-03-18T03:52:50.103Z,2.75
2019-03-18T03:53:50.038Z,2.68
2019-03-18T03:54:50.019Z,2.69
2019-03-18T03:55:50.014Z,2.65
2019-03-18T03:56:49.983Z,2.70
2019-03-18T03:57:49.958Z,2.77
2019-03-18T03:58:49.938Z,2.72
2019-03-18T03:59:49.915Z,2.73
2019-03-18T04:00:49.949Z,2.72
2019-03-18T04:01:49.898Z,2.75
2019-03-18T04:02:49.857Z,2.76
2019-03-18T04:03:49.832Z,2.82
2019-03-18T04:04:49.814Z,2.91
2019-03-18T04:05:49.794Z,2.82
2019-03-18T04:06:49.773Z,2.90
2019-03-18T04:07:49.754Z,2.98
2019-03-18T04:08:49.729Z,2.85
2019-03-18T04:09:49.721Z,2.87
2019-03-18T04:10:49.691Z,2.87
2019-03-18T04:11:49.668Z,2.93
2019-03-18T04:12:49.648Z,2.87
2019-03-18T04:13:49.628Z,2.94
2019-03-18T04:14:49.606Z,2.91
2019-03-18T04:15:49.588Z,2.82
2019-03-18T04:17:00.851Z,2.83
2019-03-18T04:17:49.549Z,2.85
2019-03-18T04:18:49.529Z,2.83
2019-03-18T04:19:49.507Z,2.75
2019-03-18T04:20:49.478Z,2.79
2019-03-18T04:21:50.888Z,2.77
2019-03-18T04:22:49.461Z,2.73
2019-03-18T04:23:49.434Z,2.79
2019-03-18T04:24:49.408Z,2.68
2019-03-18T04:25:49.381Z,2.70
2019-03-18T04:26:49.360Z,2.64
2019-03-18T04:27:49.338Z,2.69
2019-03-18T04:28:49.322Z,2.68
2019-03-18T04:29:49.298Z,2.69
2019-03-18T04:30:49.278Z,2.58
2019-03-18T04:31:49.258Z,2.61
2019-03-18T04:32:49.241Z,2.62
2019-03-18T04:33:49.216Z,2.54
2019-03-18T04:34:49.228Z,2.58
2019-03-18T04:35:49.173Z,2.57
2019-03-18T04:36:49.155Z,2.59
2019-03-18T04:37:49.130Z,2.61
2019-03-18T04:38:49.114Z,2.51
2019-03-18T04:39:49.089Z,2.51
2019-03-18T04:40:49.074Z,2.58
2019-03-18T04:41:49.057Z,2.52
2019-03-18T04:42:49.027Z,2.47
2019-03-18T04:43:49.005Z,2.47
2019-03-18T04:44:48.986Z,2.55
2019-03-18T04:45:48.974Z,2.57
2019-03-18T04:46:48.944Z,2.59
2019-03-18T04:47:48.925Z,2.52
2019-03-18T04:48:48.901Z,2.58
2019-03-18T04:49:48.879Z,2.58
2019-03-18T04:50:48.862Z,2.58
2019-03-18T04:51:48.839Z,2.57
2019-03-18T04:52:48.819Z,2.55
2019-03-18T04:53:48.795Z,2.61
2019-03-18T04:54:48.773Z,2.58
2019-03-18T04:55:48.755Z,2.59
2019-03-18T04:56:48.753Z,2.70
2019-03-18T04:57:48.719Z,2.68
2019-03-18T04:58:48.700Z,2.55
2019-03-18T04:59:48.675Z,2.61
2019-03-18T05:00:48.654Z,2.61
2019-03-18T05:01:48.636Z,2.54
2019-03-18T05:02:48.610Z,2.62
2019-03-18T05:03:48.592Z,2.70
2019-03-18T05:04:48.574Z,2.68
2019-03-18T05:05:48.553Z,2.62
2019-03-18T05:06:48.530Z,2.68
2019-03-18T05:07:48.510Z,2.59
2019-03-18T05:08:48.488Z,2.61
2019-03-18T05:09:48.470Z,2.65
2019-03-18T05:10:48.447Z,2.65
2019-03-18T05:11:48.429Z,2.65
2019-03-18T05:12:48.404Z,2.70
2019-03-18T05:13:48.499Z,2.68
2019-03-18T05:14:48.375Z,2.73
2019-03-18T05:15:48.346Z,2.76
2019-03-18T05:16:48.324Z,2.82
2019-03-18T05:17:48.312Z,2.77
2019-03-18T05:18:48.281Z,2.76
2019-03-18T05:19:48.261Z,2.76
2019-03-18T05:20:48.244Z,2.80
2019-03-18T05:21:48.221Z,2.85
2019-03-18T05:22:48.201Z,2.75
2019-03-18T05:23:48.186Z,2.85
2019-03-18T05:24:48.159Z,2.91
2019-03-18T05:25:48.137Z,2.85
2019-03-18T05:26:48.121Z,2.93
2019-03-18T05:27:48.096Z,2.91
2019-03-18T05:28:48.077Z,2.93
2019-03-18T05:29:48.058Z,2.91
2019-03-18T05:30:48.035Z,2.94
2019-03-18T05:31:48.017Z,2.90
2019-03-18T05:32:47.994Z,2.90
2019-03-18T05:33:47.972Z,2.91
2019-03-18T05:34:50.778Z,2.94
2019-03-18T05:35:47.934Z,2.93
2019-03-18T05:36:47.914Z,2.90
2019-03-18T05:37:47.893Z,3.01
2019-03-18T05:38:47.883Z,3.01
2019-03-18T05:39:47.855Z,3.00
2019-03-18T05:40:47.835Z,3.03
2019-03-18T05:41:47.810Z,3.06
2019-03-18T05:42:47.790Z,3.11
2019-03-18T05:43:47.774Z,3.13
2019-03-18T05:44:47.748Z,3.08
2019-03-18T05:45:47.727Z,3.12
2019-03-18T05:46:47.703Z,3.11
2019-03-18T05:47:47.687Z,3.09
2019-03-18T05:48:47.662Z,3.06
2019-03-18T05:49:47.645Z,3.12
2019-03-18T05:50:47.624Z,3.18
2019-03-18T05:51:47.614Z,3.11
2019-03-18T05:52:47.584Z,3.13
2019-03-18T05:53:47.563Z,3.15
2019-03-18T05:54:47.544Z,3.13
2019-03-18T05:55:47.522Z,3.12
2019-03-18T05:56:47.600Z,3.11
2019-03-18T05:57:47.482Z,3.27
2019-03-18T05:58:47.462Z,3.22
2019-03-18T05:59:47.445Z,3.27
2019-03-18T06:00:47.423Z,3.13
2019-03-18T06:01:47.400Z,3.22
2019-03-18T06:02:47.500Z,3.27
2019-03-18T06:03:47.362Z,3.21
2019-03-18T06:04:47.342Z,3.12
2019-03-18T06:05:47.318Z,3.19
2019-03-18T06:06:47.301Z,3.24
2019-03-18T06:07:47.286Z,3.24
2019-03-18T06:08:47.257Z,3.22
2019-03-18T06:09:47.258Z,3.22
2019-03-18T06:10:47.218Z,3.19
2019-03-18T06:11:47.196Z,3.24
2019-03-18T06:12:47.178Z,3.18
2019-03-18T06:13:47.154Z,3.27
2019-03-18T06:14:47.136Z,3.24
2019-03-18T06:15:47.115Z,3.24
2019-03-18T06:16:47.098Z,3.22
2019-03-18T06:17:52.834Z,3.31
2019-03-18T06:18:47.058Z,3.26
2019-03-18T06:19:47.037Z,3.15
2019-03-18T06:20:47.049Z,3.22
2019-03-18T06:21:46.993Z,3.24
2019-03-18T06:22:46.972Z,3.24
2019-03-18T06:23:46.957Z,3.26
2019-03-18T06:24:46.937Z,3.26
2019-03-18T06:25:46.909Z,3.26
2019-03-18T06:26:46.888Z,3.24
2019-03-18T06:27:46.870Z,3.27
2019-03-18T06:28:46.849Z,3.24
2019-03-18T06:29:46.828Z,3.21
2019-03-18T06:30:46.812Z,3.11
2019-03-18T06:31:46.796Z,3.15
2019-03-18T06:32:46.768Z,3.15
2019-03-18T06:33:46.756Z,3.16
2019-03-18T06:34:46.729Z,3.03
2019-03-18T06:35:46.707Z,3.12
2019-03-18T06:36:46.692Z,3.00
2019-03-18T06:37:46.665Z,3.05
2019-03-18T06:38:46.643Z,3.03
2019-03-18T06:39:46.628Z,3.12
2019-03-18T06:40:46.603Z,3.05
2019-03-18T06:41:46.581Z,3.13
2019-03-18T06:42:46.561Z,3.18
2019-03-18T06:43:46.546Z,3.22
2019-03-18T06:44:46.528Z,3.30
2019-03-18T06:45:46.511Z,3.34
2019-03-18T06:46:46.520Z,3.45
2019-03-18T06:47:46.461Z,3.37
2019-03-18T06:48:46.446Z,3.46
2019-03-18T06:49:46.420Z,3.50
2019-03-18T06:50:46.399Z,3.41
2019-03-18T06:51:46.383Z,3.55
2019-03-18T06:52:46.364Z,3.43
2019-03-18T06:53:46.341Z,3.49
2019-03-18T06:54:46.324Z,3.40
2019-03-18T06:55:46.299Z,3.41
2019-03-18T06:56:46.281Z,3.37
2019-03-18T06:57:46.259Z,3.45
2019-03-18T06:58:46.241Z,3.40
2019-03-18T06:59:46.219Z,3.37
2019-03-18T07:00:46.199Z,3.45
2019-03-18T07:01:46.179Z,3.41
2019-03-18T07:02:46.159Z,3.46
2019-03-18T07:03:46.138Z,3.58
2019-03-18T07:04:46.116Z,3.55
2019-03-18T07:05:46.331Z,3.66
2019-03-18T07:06:46.088Z,3.67
2019-03-18T07:07:46.057Z,3.77
2019-03-18T07:08:46.039Z,3.92
2019-03-18T07:09:46.019Z,3.88
2019-03-18T07:10:45.995Z,3.99
2019-03-18T07:11:45.976Z,4.12
2019-03-18T07:12:45.977Z,4.14
2019-03-18T07:13:45.941Z,4.24
2019-03-18T07:14:45.915Z,4.31
2019-03-18T07:15:45.897Z,4.45
2019-03-18T07:16:45.880Z,4.49
2019-03-18T07:17:45.859Z,4.58
2019-03-18T07:18:45.841Z,4.58
2019-03-18T07:19:45.817Z,4.58
2019-03-18T07:20:45.802Z,4.61
2019-03-18T07:21:45.777Z,4.64
2019-03-18T07:22:45.758Z,4.64
2019-03-18T07:23:45.739Z,4.66
2019-03-18T07:24:45.720Z,4.67
2019-03-18T07:25:45.697Z,4.67
2019-03-18T07:26:45.679Z,4.67
2019-03-18T07:27:45.663Z,4.71
2019-03-18T07:28:45.641Z,4.75
2019-03-18T07:29:45.621Z,4.84
2019-03-18T07:30:45.604Z,4.94
2019-03-18T07:31:45.583Z,4.95
2019-03-18T07:32:45.564Z,4.92
2019-03-18T07:33:45.543Z,5.01
2019-03-18T07:34:45.528Z,5.04
2019-03-18T07:35:45.504Z,5.00
2019-03-18T07:36:45.485Z,5.07
2019-03-18T07:37:45.465Z,5.08
2019-03-18T07:38:45.469Z,5.13
2019-03-18T07:39:45.426Z,5.23
2019-03-18T07:40:45.408Z,5.18
2019-03-18T07:41:45.386Z,5.25
2019-03-18T07:42:45.368Z,5.29
2019-03-18T07:43:45.352Z,5.37
2019-03-18T07:44:45.333Z,5.36
2019-03-18T07:45:45.311Z,5.43
2019-03-18T07:46:45.300Z,5.41
2019-03-18T07:47:45.272Z,5.44
2019-03-18T07:48:45.260Z,5.46
2019-03-18T07:49:45.238Z,5.46
2019-03-18T07:50:45.215Z,5.46
2019-03-18T07:51:45.197Z,5.41
2019-03-18T07:52:45.176Z,5.43
2019-03-18T07:53:45.157Z,5.43
2019-03-18T07:54:45.139Z,5.41
2019-03-18T07:55:45.119Z,5.40
2019-03-18T07:56:45.098Z,5.34
2019-03-18T07:57:45.080Z,5.40
2019-03-18T07:58:45.063Z,5.37
2019-03-18T07:59:45.042Z,5.34
2019-03-18T08:00:45.098Z,5.37
2019-03-18T08:01:45.006Z,5.36
2019-03-18T08:02:45.100Z,5.41
2019-03-18T08:03:44.964Z,5.46
2019-03-18T08:04:44.946Z,5.46
2019-03-18T08:05:44.922Z,5.51
2019-03-18T08:06:44.958Z,5.46
2019-03-18T08:07:44.889Z,5.41
2019-03-18T08:08:44.871Z,5.46
2019-03-18T08:09:44.849Z,5.44
2019-03-18T08:10:44.836Z,5.43
2019-03-18T08:11:44.813Z,5.47
2019-03-18T08:12:44.794Z,5.41
2019-03-18T08:13:44.775Z,5.43
2019-03-18T08:14:44.779Z,5.33
2019-03-18T08:15:44.755Z,5.34
2019-03-18T08:16:44.718Z,5.31
2019-03-18T08:17:44.693Z,5.23
2019-03-18T08:18:44.677Z,5.23
2019-03-18T08:19:44.657Z,5.20
2019-03-18T08:20:44.642Z,5.18
2019-03-18T08:21:44.625Z,5.16
2019-03-18T08:22:44.601Z,5.12
2019-03-18T08:23:44.586Z,5.05
2019-03-18T08:24:44.575Z,5.05
2019-03-18T08:25:44.540Z,5.05
2019-03-18T08:26:44.523Z,5.05
2019-03-18T08:27:44.504Z,5.01
2019-03-18T08:28:44.488Z,5.02
2019-03-18T08:29:44.463Z,4.97
2019-03-18T08:30:44.445Z,4.86
2019-03-18T08:31:44.426Z,4.87
2019-03-18T08:32:44.424Z,4.83
2019-03-18T08:33:44.386Z,4.92
2019-03-18T08:34:44.368Z,4.82
2019-03-18T08:35:44.402Z,4.82
2019-03-18T08:36:44.329Z,4.82
2019-03-18T08:37:44.308Z,4.74
2019-03-18T08:38:44.291Z,4.87
2019-03-18T08:39:44.271Z,4.83
2019-03-18T08:40:44.252Z,4.78
2019-03-18T08:41:44.228Z,4.83
2019-03-18T08:42:44.212Z,4.92
2019-03-18T08:43:44.192Z,4.89
2019-03-18T08:44:44.173Z,4.87
2019-03-18T08:45:44.152Z,4.92
2019-03-18T08:46:44.150Z,5.00
2019-03-18T08:47:44.115Z,5.00
2019-03-18T08:48:55.374Z,5.07
2019-03-18T08:49:44.081Z,5.07
2019-03-18T08:50:44.055Z,5.23
2019-03-18T08:51:44.037Z,5.22
2019-03-18T08:52:44.109Z,5.15
2019-03-18T08:53:43.994Z,5.15
2019-03-18T08:54:43.975Z,5.20
2019-03-18T08:55:43.961Z,5.23
2019-03-18T08:56:43.938Z,5.29
2019-03-18T08:57:43.920Z,5.28
2019-03-18T08:58:43.899Z,5.23
2019-03-18T08:59:43.889Z,5.25
2019-03-18T09:00:43.870Z,5.34
2019-03-18T09:01:43.860Z,5.33
2019-03-18T09:02:43.821Z,5.34
2019-03-18T09:03:43.802Z,5.34
2019-03-18T09:04:43.783Z,5.38
2019-03-18T09:05:43.772Z,5.37
2019-03-18T09:06:43.746Z,5.41
2019-03-18T09:07:43.730Z,5.36
2019-03-18T09:08:43.707Z,5.37
2019-03-18T09:09:43.684Z,5.40
2019-03-18T09:10:43.666Z,5.34
2019-03-18T09:11:43.648Z,5.41
2019-03-18T09:12:43.627Z,5.40
2019-03-18T09:13:43.608Z,5.41
2019-03-18T09:14:43.589Z,5.44
2019-03-18T09:15:43.574Z,5.43
2019-03-18T09:16:43.549Z,5.54
2019-03-18T09:17:43.526Z,5.46
2019-03-18T09:18:43.512Z,5.46
2019-03-18T09:19:43.493Z,5.46
2019-03-18T09:20:43.473Z,5.51
2019-03-18T09:21:43.455Z,5.64
2019-03-18T09:22:43.434Z,5.51
2019-03-18T09:23:43.415Z,5.61
2019-03-18T09:24:43.397Z,5.61
2019-03-18T09:25:43.377Z,5.72
2019-03-18T09:26:43.361Z,5.76
2019-03-18T09:27:43.342Z,5.72
2019-03-18T09:28:43.343Z,5.77
2019-03-18T09:29:43.298Z,5.73
2019-03-18T09:30:43.285Z,5.87
2019-03-18T09:31:43.264Z,5.98
2019-03-18T09:32:43.246Z,6.01
2019-03-18T09:33:43.223Z,5.99
2019-03-18T09:34:43.206Z,5.98
2019-03-18T09:35:43.187Z,6.07
2019-03-18T09:36:43.178Z,6.09
2019-03-18T09:37:43.146Z,6.17
2019-03-18T09:38:43.129Z,6.10
2019-03-18T09:39:43.112Z,6.13
2019-03-18T09:40:43.091Z,6.12
2019-03-18T09:41:43.072Z,6.09
2019-03-18T09:42:43.053Z,6.16
2019-03-18T09:43:43.043Z,6.17
2019-03-18T09:44:43.019Z,6.12
2019-03-18T09:45:42.999Z,6.16
2019-03-18T09:46:42.982Z,6.19
2019-03-18T09:47:42.958Z,6.15
2019-03-18T09:48:42.940Z,6.22
2019-03-18T09:49:42.925Z,6.25
2019-03-18T09:50:42.904Z,6.31
2019-03-18T09:51:42.885Z,6.32
2019-03-18T09:52:42.865Z,6.43
2019-03-18T09:53:42.840Z,6.43
2019-03-18T09:54:42.836Z,6.54
2019-03-18T09:55:42.807Z,6.56
2019-03-18T09:56:42.791Z,6.52
2019-03-18T09:57:42.776Z,6.62
2019-03-18T09:58:42.755Z,6.68
2019-03-18T09:59:42.734Z,6.80
2019-03-18T10:00:42.716Z,6.75
2019-03-18T10:01:44.486Z,6.83
2019-03-18T10:02:42.685Z,6.90
2019-03-18T10:03:42.665Z,7.08
2019-03-18T10:04:42.646Z,7.23
2019-03-18T10:05:43.954Z,7.39
2019-03-18T10:06:42.606Z,7.61
2019-03-18T10:07:42.594Z,7.75
2019-03-18T10:08:42.577Z,7.85
2019-03-18T10:09:42.553Z,7.99
2019-03-18T10:10:42.534Z,8.11
2019-03-18T10:11:42.519Z,8.23
2019-03-18T10:12:42.503Z,8.31
2019-03-18T10:13:42.504Z,8.38
2019-03-18T10:14:42.465Z,8.42
2019-03-18T10:15:42.447Z,8.52
2019-03-18T10:16:42.429Z,8.44
2019-03-18T10:17:42.413Z,8.36
2019-03-18T10:18:42.395Z,8.42
2019-03-18T10:19:42.378Z,8.38
2019-03-18T10:20:42.363Z,8.28
2019-03-18T10:21:42.339Z,8.24
2019-03-18T10:22:42.322Z,8.20
2019-03-18T10:23:42.307Z,8.21
2019-03-18T10:24:42.291Z,8.20
2019-03-18T10:25:42.276Z,8.24
2019-03-18T10:26:42.256Z,8.23
2019-03-18T10:27:42.237Z,8.18
2019-03-18T10:28:42.220Z,8.09
2019-03-18T10:29:42.199Z,8.20
2019-03-18T10:30:42.209Z,8.18
2019-03-18T10:31:42.165Z,8.14
2019-03-18T10:32:42.150Z,8.08
2019-03-18T10:33:44.911Z,8.11
2019-03-18T10:34:42.161Z,8.08
2019-03-18T10:35:42.094Z,8.08
2019-03-18T10:36:42.080Z,8.09
2019-03-18T10:37:42.051Z,8.13
2019-03-18T10:38:42.047Z,8.13
2019-03-18T10:39:42.028Z,8.23
2019-03-18T10:40:42.006Z,8.24
2019-03-18T10:41:41.989Z,8.26
2019-03-18T10:42:41.975Z,8.20
2019-03-18T10:43:41.954Z,8.21
2019-03-18T10:44:41.937Z,8.28
2019-03-18T10:45:41.927Z,8.18
2019-03-18T10:46:41.898Z,8.23
2019-03-18T10:47:41.906Z,8.14
2019-03-18T10:48:41.868Z,8.11
2019-03-18T10:49:46.283Z,8.14
2019-03-18T10:50:41.831Z,8.08
2019-03-18T10:51:41.817Z,8.18
2019-03-18T10:52:41.801Z,8.17
2019-03-18T10:53:44.479Z,8.27
2019-03-18T10:54:41.785Z,8.28
2019-03-18T10:55:41.744Z,8.32
2019-03-18T10:56:41.738Z,8.39
2019-03-18T10:57:41.708Z,8.52
2019-03-18T10:58:41.693Z,8.69
2019-03-18T10:59:41.676Z,8.82
2019-03-18T11:00:41.775Z,8.97
2019-03-18T11:01:41.639Z,9.12
2019-03-18T11:02:44.650Z,9.26
2019-03-18T11:03:41.608Z,9.45
2019-03-18T11:04:41.593Z,9.51
2019-03-18T11:05:41.576Z,9.51
2019-03-18T11:06:41.554Z,9.56
2019-03-18T11:07:41.540Z,9.52
2019-03-18T11:08:41.523Z,9.58
2019-03-18T11:09:41.519Z,9.59
2019-03-18T11:10:41.490Z,9.64
2019-03-18T11:11:41.482Z,9.63
2019-03-18T11:12:41.462Z,9.69
2019-03-18T11:13:41.442Z,9.72
2019-03-18T11:14:41.423Z,9.66
2019-03-18T11:15:41.410Z,9.62
2019-03-18T11:16:41.394Z,9.56
2019-03-18T11:17:41.377Z,9.34
2019-03-18T11:18:41.359Z,9.31
2019-03-18T11:19:41.371Z,9.16
2019-03-18T11:20:41.326Z,9.08
2019-03-18T11:21:41.311Z,8.97
2019-03-18T11:22:41.319Z,8.93
2019-03-18T11:23:41.274Z,8.92
2019-03-18T11:24:41.256Z,8.86
2019-03-18T11:25:41.243Z,8.87
2019-03-18T11:26:41.223Z,9.12
2019-03-18T11:27:41.264Z,9.16
2019-03-18T11:28:41.188Z,9.11
2019-03-18T11:29:41.173Z,8.95
2019-03-18T11:30:41.155Z,8.79
2019-03-18T11:31:41.137Z,8.52
2019-03-18T11:32:41.120Z,8.26
2019-03-18T11:33:41.107Z,8.17
2019-03-18T11:34:41.084Z,8.09
2019-03-18T11:35:41.068Z,7.91
2019-03-18T11:36:41.051Z,7.77
2019-03-18T11:37:41.040Z,7.72
2019-03-18T11:38:41.019Z,7.58
2019-03-18T11:39:41.001Z,7.41
2019-03-18T11:40:40.981Z,7.40
2019-03-18T11:41:40.965Z,7.23
2019-03-18T11:42:40.945Z,7.11
2019-03-18T11:43:40.926Z,7.08
2019-03-18T11:44:40.908Z,7.07
2019-03-18T11:45:40.890Z,7.04
2019-03-18T11:46:40.873Z,6.93
2019-03-18T11:47:40.859Z,6.90
2019-03-18T11:48:40.837Z,6.90
2019-03-18T11:49:40.817Z,6.92
2019-03-18T11:50:41.527Z,6.93
2019-03-18T11:51:40.795Z,6.97
2019-03-18T11:52:40.765Z,7.04
2019-03-18T11:53:40.747Z,7.50
2019-03-18T11:54:40.729Z,7.99
2019-03-18T11:55:40.711Z,8.39
2019-03-18T11:56:40.701Z,8.84
2019-03-18T11:57:40.676Z,9.33
2019-03-18T11:58:40.661Z,9.74
2019-03-18T11:59:40.642Z,10.31
2019-03-18T12:00:40.626Z,10.77
2019-03-18T12:01:40.608Z,11.15
2019-03-18T12:02:40.594Z,11.58
2019-03-18T12:03:40.577Z,12.00
2019-03-18T12:04:40.565Z,12.35
2019-03-18T12:05:40.549Z,12.62
2019-03-18T12:06:40.531Z,12.84
2019-03-18T12:07:40.522Z,12.83
2019-03-18T12:08:40.504Z,12.63
2019-03-18T12:09:40.493Z,12.73
2019-03-18T12:10:40.476Z,12.57
2019-03-18T12:11:40.461Z,12.68
2019-03-18T12:12:40.445Z,12.55
2019-03-18T12:13:40.429Z,12.25
2019-03-18T12:14:40.418Z,12.21
2019-03-18T12:15:40.400Z,12.23
2019-03-18T12:16:40.385Z,12.43
2019-03-18T12:17:40.371Z,12.62
2019-03-18T12:18:40.359Z,12.90
2019-03-18T12:19:40.362Z,12.88
2019-03-18T12:20:40.329Z,13.08
2019-03-18T12:21:40.318Z,13.20
2019-03-18T12:22:40.300Z,13.08
2019-03-18T12:23:40.288Z,13.09
2019-03-18T12:24:40.267Z,13.05
2019-03-18T12:25:40.258Z,12.99
2019-03-18T12:26:40.248Z,13.20
2019-03-18T12:27:40.234Z,13.37
2019-03-18T12:28:40.223Z,13.60
2019-03-18T12:29:40.205Z,13.68
2019-03-18T12:30:40.194Z,13.82
2019-03-18T12:31:40.181Z,14.03
2019-03-18T12:32:40.168Z,13.95
2019-03-18T12:33:40.175Z,14.01
2019-03-18T12:34:40.138Z,13.91
2019-03-18T12:35:40.163Z,13.71
2019-03-18T12:36:40.116Z,13.62
2019-03-18T12:37:40.106Z,13.54
2019-03-18T12:38:40.087Z,13.30
2019-03-18T12:39:40.072Z,13.20
2019-03-18T12:40:40.059Z,13.06
2019-03-18T12:41:40.046Z,12.84
2019-03-18T12:42:40.033Z,12.69
2019-03-18T12:43:40.013Z,12.72
2019-03-18T12:44:40.016Z,12.81
2019-03-18T12:45:39.990Z,12.93
2019-03-18T12:46:39.977Z,13.21
2019-03-18T12:47:39.963Z,13.47
2019-03-18T12:48:39.948Z,13.70
2019-03-18T12:49:39.936Z,13.76
2019-03-18T12:50:55.020Z,13.82
2019-03-18T12:51:39.913Z,13.95
2019-03-18T12:52:39.904Z,14.16
2019-03-18T12:53:39.889Z,14.33
2019-03-18T12:54:39.873Z,14.70
2019-03-18T12:55:39.862Z,15.05
2019-03-18T12:56:39.859Z,15.04
2019-03-18T12:57:39.843Z,15.19
2019-03-18T12:58:39.827Z,15.19
2019-03-18T12:59:39.815Z,15.37
2019-03-18T13:00:39.809Z,15.57
2019-03-18T13:01:39.799Z,15.88
2019-03-18T13:02:39.790Z,16.02
2019-03-18T13:03:39.777Z,16.21
2019-03-18T13:04:39.771Z,16.25
2019-03-18T13:05:39.757Z,16.43
2019-03-18T13:06:39.748Z,16.40
2019-03-18T13:07:39.746Z,16.49
2019-03-18T13:08:39.734Z,16.46
2019-03-18T13:09:39.726Z,16.65
2019-03-18T13:10:39.719Z,16.83
2019-03-18T13:11:39.714Z,17.04
2019-03-18T13:12:39.704Z,16.95
2019-03-18T13:13:39.695Z,16.84
2019-03-18T13:14:39.695Z,16.80
2019-03-18T13:15:39.684Z,16.72